Time;durP1;ratioP1;P1;durP2;ratioP2;P2;SDS_P1;SDS_P2;PMS_P1;PMS_P2;Temp;Humidity;BMP_temperature;BMP_pressure;BME280_temperature;BME280_humidity;BME280_pressure;Samples;Min_cycle;Max_cycle;Signal;HPM_P1;HPM_P2
2022/02/21 00:00:15;;;;;;;1.20;0.70;;;;;;;;;;5046844;28;20025;-46
2022/02/21 00:02:43;;;;;;;1.75;0.80;;;;;;;;;;5045098;28;20033;-46
2022/02/21 00:05:10;;;;;;;0.68;0.60;;;;;;;;;;5045843;28;20029;-47
2022/02/21 00:07:36;;;;;;;0.50;0.50;;;;;;;;;;5046848;28;20134;-47
2022/02/21 00:10:02;;;;;;;1.52;0.68;;;;;;;;;;5046801;28;20076;-47
2022/02/21 00:12:28;;;;;;;1.10;0.80;;;;;;;;;;5046872;28;20026;-51
2022/02/21 00:14:54;;;;;;;0.70;0.60;;;;;;;;;;5046820;28;20071;-48
2022/02/21 00:17:20;;;;;;;0.47;0.40;;;;;;;;;;5045605;28;20021;-46
2022/02/21 00:19:46;;;;;;;0.70;0.52;;;;;;;;;;5045169;28;20501;-47
2022/02/21 00:22:12;;;;;;;1.05;0.70;;;;;;;;;;5045374;28;20124;-46
2022/02/21 00:24:39;;;;;;;1.30;0.90;;;;;;;;;;5064916;28;20032;-46
2022/02/21 00:27:05;;;;;;;0.90;0.60;;;;;;;;;;5065122;28;20028;-46
2022/02/21 00:29:31;;;;;;;0.75;0.60;;;;;;;;;;5066253;28;20033;-47
2022/02/21 00:31:57;;;;;;;1.85;0.85;;;;;;;;;;5065323;28;20028;-48
2022/02/21 00:34:24;;;;;;;1.45;0.70;;;;;;;;;;5066351;28;20448;-47
2022/02/21 00:36:51;;;;;;;1.02;0.60;;;;;;;;;;5066386;28;20025;-48
2022/02/21 00:39:17;;;;;;;0.75;0.63;;;;;;;;;;5047135;28;20033;-47
2022/02/21 00:41:43;;;;;;;0.90;0.70;;;;;;;;;;5046280;28;20025;-47
2022/02/21 00:44:09;;;;;;;0.55;0.50;;;;;;;;;;5045276;28;20031;-47
2022/02/21 00:46:35;;;;;;;1.17;0.60;;;;;;;;;;5057386;28;20487;-48
2022/02/21 00:49:03;;;;;;;0.80;0.52;;;;;;;;;;5047585;28;20630;-47
2022/02/21 00:51:29;;;;;;;0.60;0.50;;;;;;;;;;5046906;28;20029;-46
2022/02/21 00:53:56;;;;;;;0.60;0.55;;;;;;;;;;5045935;28;20510;-46
2022/02/21 00:56:22;;;;;;;1.50;0.60;;;;;;;;;;5046914;28;20055;-46
2022/02/21 00:58:48;;;;;;;0.55;0.50;;;;;;;;;;5046329;28;20527;-47
2022/02/21 01:01:14;;;;;;;0.50;0.50;;;;;;;;;;5047241;28;20032;-47
2022/02/21 01:03:40;;;;;;;0.60;0.60;;;;;;;;;;5066770;28;20032;-50
2022/02/21 01:06:06;;;;;;;0.50;0.50;;;;;;;;;;5066497;28;20519;-48
2022/02/21 01:08:32;;;;;;;0.52;0.52;;;;;;;;;;5065926;28;20024;-48
2022/02/21 01:10:59;;;;;;;0.40;0.40;;;;;;;;;;5066338;28;20035;-48
2022/02/21 01:13:25;;;;;;;0.77;0.60;;;;;;;;;;5066154;28;20021;-49
2022/02/21 01:15:53;;;;;;;0.82;0.50;;;;;;;;;;5066002;28;20105;-48
2022/02/21 01:18:19;;;;;;;0.40;0.40;;;;;;;;;;5066296;28;20386;-47
2022/02/21 01:20:45;;;;;;;0.50;0.45;;;;;;;;;;5066351;28;20146;-46
2022/02/21 01:23:11;;;;;;;0.65;0.65;;;;;;;;;;5063510;28;20028;-47
2022/02/21 01:25:39;;;;;;;0.93;0.57;;;;;;;;;;5046658;28;20033;-46
2022/02/21 01:28:05;;;;;;;0.50;0.50;;;;;;;;;;5045733;28;20033;-46
2022/02/21 01:30:31;;;;;;;1.00;0.80;;;;;;;;;;5046041;28;20343;-46
2022/02/21 01:32:57;;;;;;;1.27;0.90;;;;;;;;;;5045710;28;20025;-46
2022/02/21 01:35:24;;;;;;;1.45;0.80;;;;;;;;;;5046405;28;20032;-47
2022/02/21 01:37:50;;;;;;;0.88;0.70;;;;;;;;;;5045859;28;20099;-46
2022/02/21 01:40:17;;;;;;;1.08;0.88;;;;;;;;;;5046017;28;20041;-48
2022/02/21 01:42:44;;;;;;;2.05;0.98;;;;;;;;;;5047867;28;20078;-48
2022/02/21 01:45:11;;;;;;;1.83;0.90;;;;;;;;;;5050300;28;20029;-48
2022/02/21 01:47:38;;;;;;;1.52;1.02;;;;;;;;;;5050372;28;20125;-47
2022/02/21 01:50:04;;;;;;;2.75;1.08;;;;;;;;;;5049513;28;20040;-47
2022/02/21 01:52:31;;;;;;;1.45;0.73;;;;;;;;;;5050398;28;20036;-47
2022/02/21 01:54:58;;;;;;;1.80;1.00;;;;;;;;;;5049976;28;20025;-47
2022/02/21 01:57:25;;;;;;;2.15;1.00;;;;;;;;;;5050096;28;20029;-47
2022/02/21 01:59:51;;;;;;;1.30;0.80;;;;;;;;;;5049580;28;20107;-46
2022/02/21 02:02:17;;;;;;;1.38;1.00;;;;;;;;;;5049590;28;20469;-47
2022/02/21 02:04:43;;;;;;;2.28;1.08;;;;;;;;;;5049823;28;20037;-51
2022/02/21 02:07:13;;;;;;;1.75;1.10;;;;;;;;;;5050228;28;20369;-49
2022/02/21 02:09:40;;;;;;;1.55;1.00;;;;;;;;;;5049749;28;20044;-48
2022/02/21 02:12:09;;;;;;;0.93;0.70;;;;;;;;;;5048355;28;20580;-47
2022/02/21 02:14:37;;;;;;;1.58;0.88;;;;;;;;;;5055469;28;20099;-46
2022/02/21 02:17:04;;;;;;;2.95;1.00;;;;;;;;;;5069425;28;20031;-46
2022/02/21 02:19:31;;;;;;;1.23;0.70;;;;;;;;;;5070033;28;20186;-46
2022/02/21 02:21:57;;;;;;;2.15;1.00;;;;;;;;;;5069239;28;20422;-49
2022/02/21 02:24:24;;;;;;;1.42;0.98;;;;;;;;;;5069228;28;20430;-46
2022/02/21 02:26:56;;;;;;;2.15;1.00;;;;;;;;;;5069771;28;20437;-50
2022/02/21 02:29:22;;;;;;;2.55;1.00;;;;;;;;;;5068260;28;20104;-46
2022/02/21 02:31:49;;;;;;;2.03;0.95;;;;;;;;;;5067452;28;20442;-46
2022/02/21 02:34:16;;;;;;;1.60;0.95;;;;;;;;;;5070618;28;20020;-47
2022/02/21 02:36:44;;;;;;;1.45;0.93;;;;;;;;;;5071045;28;20028;-49
2022/02/21 02:39:12;;;;;;;2.70;0.98;;;;;;;;;;5070795;28;20017;-49
2022/02/21 02:41:38;;;;;;;1.55;0.98;;;;;;;;;;5057904;28;20048;-47
2022/02/21 02:44:04;;;;;;;1.73;0.80;;;;;;;;;;5050351;28;20033;-48
2022/02/21 02:46:30;;;;;;;2.60;1.10;;;;;;;;;;5050602;28;20072;-46
2022/02/21 02:48:56;;;;;;;1.30;0.82;;;;;;;;;;5056429;28;20485;-45
2022/02/21 02:51:22;;;;;;;1.20;0.80;;;;;;;;;;5070562;28;20043;-48
2022/02/21 02:53:49;;;;;;;2.35;1.00;;;;;;;;;;5069896;28;20028;-46
2022/02/21 02:56:15;;;;;;;2.65;1.00;;;;;;;;;;5070373;28;20028;-47
2022/02/21 02:58:41;;;;;;;2.00;0.88;;;;;;;;;;5070763;28;20390;-47
2022/02/21 03:01:07;;;;;;;1.17;0.70;;;;;;;;;;5070273;28;20024;-47
2022/02/21 03:03:34;;;;;;;2.20;0.90;;;;;;;;;;5063942;28;20687;-47
2022/02/21 03:06:00;;;;;;;1.33;1.00;;;;;;;;;;5050231;28;20136;-47
2022/02/21 03:08:26;;;;;;;1.58;0.80;;;;;;;;;;5050484;28;20107;-47
2022/02/21 03:10:52;;;;;;;2.25;0.90;;;;;;;;;;5050365;28;20124;-46
2022/02/21 03:13:18;;;;;;;1.95;0.75;;;;;;;;;;5049945;28;20037;-46
2022/02/21 03:15:44;;;;;;;2.50;1.10;;;;;;;;;;5050054;28;20078;-47
2022/02/21 03:18:10;;;;;;;2.28;1.05;;;;;;;;;;5053774;28;20791;-47
2022/02/21 03:20:36;;;;;;;1.73;0.90;;;;;;;;;;5070372;28;20043;-46
2022/02/21 03:23:02;;;;;;;2.13;0.75;;;;;;;;;;5070007;28;20028;-48
2022/02/21 03:25:29;;;;;;;1.88;0.93;;;;;;;;;;5070028;28;20029;-48
2022/02/21 03:27:56;;;;;;;1.15;0.90;;;;;;;;;;5069552;28;20028;-47
2022/02/21 03:30:22;;;;;;;1.27;0.80;;;;;;;;;;5069689;28;20021;-46
2022/02/21 03:32:49;;;;;;;1.13;0.82;;;;;;;;;;5065216;28;20107;-46
2022/02/21 03:35:15;;;;;;;1.38;0.80;;;;;;;;;;5049753;28;20019;-46
2022/02/21 03:37:41;;;;;;;1.63;0.85;;;;;;;;;;5050187;28;20055;-46
2022/02/21 03:40:08;;;;;;;0.60;0.50;;;;;;;;;;5049705;28;20104;-47
2022/02/21 03:42:35;;;;;;;1.48;0.60;;;;;;;;;;5069541;28;20391;-47
2022/02/21 03:45:01;;;;;;;1.25;0.55;;;;;;;;;;5069399;28;20108;-46
2022/02/21 03:47:27;;;;;;;1.35;0.60;;;;;;;;;;5069694;28;20499;-48
2022/02/21 03:49:53;;;;;;;1.40;0.77;;;;;;;;;;5069223;28;20036;-47
2022/02/21 03:52:20;;;;;;;2.03;0.90;;;;;;;;;;5069667;28;20438;-46
2022/02/21 03:54:46;;;;;;;1.02;0.60;;;;;;;;;;5069449;28;20023;-48
2022/02/21 03:57:12;;;;;;;0.82;0.68;;;;;;;;;;5054696;28;20048;-46
2022/02/21 03:59:38;;;;;;;2.17;0.98;;;;;;;;;;5069483;28;20021;-48
2022/02/21 04:02:04;;;;;;;0.82;0.65;;;;;;;;;;5068972;28;20493;-48
2022/02/21 04:04:31;;;;;;;1.27;0.82;;;;;;;;;;5069460;28;20052;-47
2022/02/21 04:06:57;;;;;;;2.03;0.80;;;;;;;;;;5068854;28;20063;-46
2022/02/21 04:09:23;;;;;;;2.22;0.75;;;;;;;;;;5069073;28;21023;-49
2022/02/21 04:11:49;;;;;;;1.90;0.63;;;;;;;;;;5062187;28;20542;-49
2022/02/21 04:14:15;;;;;;;1.98;0.90;;;;;;;;;;5048554;28;20033;-48
2022/02/21 04:16:42;;;;;;;2.42;0.90;;;;;;;;;;5049046;28;20025;-49
2022/02/21 04:19:08;;;;;;;2.38;0.65;;;;;;;;;;5049084;28;20029;-47
2022/02/21 04:21:36;;;;;;;3.10;0.98;;;;;;;;;;5049134;28;20439;-51
2022/02/21 04:24:02;;;;;;;1.33;0.93;;;;;;;;;;5048851;28;20063;-47
2022/02/21 04:26:29;;;;;;;1.35;0.80;;;;;;;;;;5053100;28;20029;-48
2022/02/21 04:28:55;;;;;;;1.35;0.85;;;;;;;;;;5067696;28;20017;-46
2022/02/21 04:31:21;;;;;;;2.13;1.10;;;;;;;;;;5067955;28;20075;-46
2022/02/21 04:33:47;;;;;;;3.45;1.10;;;;;;;;;;5068126;28;20100;-46
2022/02/21 04:36:14;;;;;;;1.17;0.77;;;;;;;;;;5067856;28;20021;-47
2022/02/21 04:38:40;;;;;;;1.27;0.82;;;;;;;;;;5068691;28;20483;-45
2022/02/21 04:41:06;;;;;;;1.35;0.80;;;;;;;;;;5063455;28;20037;-46
2022/02/21 04:43:32;;;;;;;2.08;1.13;;;;;;;;;;5048513;28;20438;-47
2022/02/21 04:45:59;;;;;;;1.27;0.65;;;;;;;;;;5048364;28;20680;-50
2022/02/21 04:48:26;;;;;;;1.38;0.70;;;;;;;;;;5048550;28;20376;-46
2022/02/21 04:50:53;;;;;;;1.70;1.00;;;;;;;;;;5053259;28;20033;-47
2022/02/21 04:53:19;;;;;;;2.75;0.80;;;;;;;;;;5068335;28;20103;-50
2022/02/21 04:55:45;;;;;;;2.33;0.95;;;;;;;;;;5068258;28;20025;-46
2022/02/21 04:58:11;;;;;;;1.73;0.65;;;;;;;;;;5068417;28;20025;-49
2022/02/21 05:00:37;;;;;;;2.33;0.80;;;;;;;;;;5068432;28;20028;-46
2022/02/21 05:03:03;;;;;;;2.92;1.00;;;;;;;;;;5068084;28;20036;-48
2022/02/21 05:05:30;;;;;;;3.92;0.90;;;;;;;;;;5063077;28;20035;-46
2022/02/21 05:07:56;;;;;;;1.88;0.90;;;;;;;;;;5048022;28;20044;-47
2022/02/21 05:10:22;;;;;;;2.08;0.90;;;;;;;;;;5047984;28;20120;-46
2022/02/21 05:12:48;;;;;;;2.10;1.10;;;;;;;;;;5047865;28;20040;-46
2022/02/21 05:15:14;;;;;;;2.90;0.95;;;;;;;;;;5047784;28;20033;-46
2022/02/21 05:17:41;;;;;;;2.80;0.90;;;;;;;;;;5048047;28;20073;-48
2022/02/21 05:20:09;;;;;;;3.10;0.98;;;;;;;;;;5047985;28;20095;-46
2022/02/21 05:22:35;;;;;;;2.72;0.95;;;;;;;;;;5047966;28;20029;-48
2022/02/21 05:25:02;;;;;;;2.83;0.90;;;;;;;;;;5047347;28;20155;-47
2022/02/21 05:27:28;;;;;;;1.52;0.90;;;;;;;;;;5048096;28;20053;-47
2022/02/21 05:29:54;;;;;;;1.58;0.80;;;;;;;;;;5047244;28;20064;-47
2022/02/21 05:32:20;;;;;;;2.05;0.88;;;;;;;;;;5048046;28;20021;-47
2022/02/21 05:34:46;;;;;;;1.27;0.75;;;;;;;;;;5048034;28;20032;-47
2022/02/21 05:37:12;;;;;;;2.83;0.98;;;;;;;;;;5047748;28;20096;-47
2022/02/21 05:39:38;;;;;;;3.85;2.25;;;;;;;;;;5048773;28;20025;-47
2022/02/21 05:42:04;;;;;;;3.92;1.92;;;;;;;;;;5067472;28;20025;-47
2022/02/21 05:44:31;;;;;;;3.70;1.88;;;;;;;;;;5064805;28;20067;-49
2022/02/21 05:46:57;;;;;;;2.63;1.40;;;;;;;;;;5047422;28;20672;-51
2022/02/21 05:49:23;;;;;;;2.75;1.20;;;;;;;;;;5047479;28;20488;-49
2022/02/21 05:51:49;;;;;;;1.50;1.13;;;;;;;;;;5047603;28;20052;-50
2022/02/21 05:54:15;;;;;;;3.53;1.48;;;;;;;;;;5047417;28;20053;-48
2022/02/21 05:56:41;;;;;;;1.13;0.88;;;;;;;;;;5047993;28;20514;-47
2022/02/21 05:59:07;;;;;;;0.95;0.80;;;;;;;;;;5047009;28;20029;-47
2022/02/21 06:01:33;;;;;;;0.82;0.70;;;;;;;;;;5047775;28;20025;-49
2022/02/21 06:03:59;;;;;;;2.30;1.00;;;;;;;;;;5046886;28;20650;-51
2022/02/21 06:06:25;;;;;;;2.03;1.10;;;;;;;;;;5047365;28;20032;-47
2022/02/21 06:08:52;;;;;;;2.45;0.90;;;;;;;;;;5047438;28;20025;-50
2022/02/21 06:11:18;;;;;;;0.90;0.70;;;;;;;;;;5047569;28;20025;-47
2022/02/21 06:13:44;;;;;;;0.90;0.70;;;;;;;;;;5047350;28;20110;-48
2022/02/21 06:16:10;;;;;;;0.90;0.55;;;;;;;;;;5047254;28;20017;-49
2022/02/21 06:18:36;;;;;;;0.80;0.70;;;;;;;;;;5049304;28;20522;-48
2022/02/21 06:21:02;;;;;;;2.95;0.80;;;;;;;;;;5054249;28;20527;-48
2022/02/21 06:23:28;;;;;;;1.77;0.80;;;;;;;;;;5067475;28;20396;-52
2022/02/21 06:25:54;;;;;;;1.08;0.70;;;;;;;;;;5048200;28;20503;-50
2022/02/21 06:28:24;;;;;;;1.20;0.68;;;;;;;;;;5047170;28;20507;-49
2022/02/21 06:30:51;;;;;;;0.50;0.50;;;;;;;;;;5050639;28;20025;-49
2022/02/21 06:33:17;;;;;;;1.15;0.88;;;;;;;;;;5050801;28;20032;-50
2022/02/21 06:35:43;;;;;;;1.00;0.73;;;;;;;;;;5065312;28;20071;-50
2022/02/21 06:38:09;;;;;;;1.38;0.70;;;;;;;;;;5068952;28;20106;-50
2022/02/21 06:40:35;;;;;;;1.42;0.85;;;;;;;;;;5069614;28;20029;-51
2022/02/21 06:43:02;;;;;;;4.78;2.78;;;;;;;;;;5069540;28;20032;-53
2022/02/21 06:45:28;;;;;;;5.65;3.22;;;;;;;;;;5069573;28;20419;-49
2022/02/21 06:47:55;;;;;;;6.32;3.42;;;;;;;;;;5070528;28;20052;-50
2022/02/21 06:50:21;;;;;;;6.00;3.17;;;;;;;;;;5070345;28;20028;-50
2022/02/21 06:52:47;;;;;;;5.57;3.22;;;;;;;;;;5070594;28;20151;-51
2022/02/21 06:55:13;;;;;;;5.40;2.75;;;;;;;;;;5070068;28;20040;-49
2022/02/21 06:57:44;;;;;;;4.60;2.78;;;;;;;;;;5050379;28;20048;-50
2022/02/21 07:00:10;;;;;;;5.00;2.63;;;;;;;;;;5050637;28;20404;-50
2022/02/21 07:02:36;;;;;;;3.72;2.38;;;;;;;;;;5050430;28;20121;-49
2022/02/21 07:05:03;;;;;;;2.05;1.42;;;;;;;;;;5049942;28;20115;-49
2022/02/21 07:07:29;;;;;;;2.15;1.30;;;;;;;;;;5051881;28;20388;-49
2022/02/21 07:09:55;;;;;;;5.00;1.55;;;;;;;;;;5049583;28;20083;-49
2022/02/21 07:12:21;;;;;;;5.60;1.50;;;;;;;;;;5050206;28;20022;-48
2022/02/21 07:14:47;;;;;;;7.65;1.92;;;;;;;;;;5053730;28;20024;-48
2022/02/21 07:17:14;;;;;;;4.57;1.55;;;;;;;;;;5069863;28;20043;-50
2022/02/21 07:19:40;;;;;;;4.18;1.50;;;;;;;;;;5061349;28;20516;-51
2022/02/21 07:22:06;;;;;;;4.88;1.25;;;;;;;;;;5049667;28;20029;-49
2022/02/21 07:24:33;;;;;;;2.88;1.30;;;;;;;;;;5058701;28;20032;-48
2022/02/21 07:27:02;;;;;;;7.57;1.20;;;;;;;;;;5069678;28;20505;-50
2022/02/21 07:29:29;;;;;;;4.22;1.75;;;;;;;;;;5050817;28;20099;-52
2022/02/21 07:31:56;;;;;;;4.50;1.80;;;;;;;;;;5059846;28;20087;-49
2022/02/21 07:34:22;;;;;;;5.45;1.60;;;;;;;;;;5067819;28;20435;-49
2022/02/21 07:36:48;;;;;;;4.75;1.38;;;;;;;;;;5069814;28;20539;-52
2022/02/21 07:39:14;;;;;;;3.58;1.15;;;;;;;;;;5064546;28;20798;-52
2022/02/21 07:41:40;;;;;;;5.07;1.10;;;;;;;;;;5049392;28;20056;-51
2022/02/21 07:44:07;;;;;;;3.83;1.35;;;;;;;;;;5049663;28;20025;-50
2022/02/21 07:46:33;;;;;;;4.43;1.42;;;;;;;;;;5049659;28;20029;-50
2022/02/21 07:48:59;;;;;;;2.22;0.90;;;;;;;;;;5061018;28;20133;-50
2022/02/21 07:51:25;;;;;;;3.80;1.30;;;;;;;;;;5069331;28;20036;-49
2022/02/21 07:53:52;;;;;;;5.05;1.23;;;;;;;;;;5055031;28;20044;-49
2022/02/21 07:56:18;;;;;;;5.25;1.45;;;;;;;;;;5049037;28;20052;-51
2022/02/21 07:58:44;;;;;;;4.22;1.50;;;;;;;;;;5054781;28;20055;-52
2022/02/21 08:01:10;;;;;;;4.80;1.20;;;;;;;;;;5056110;28;20479;-52
2022/02/21 08:03:37;;;;;;;5.30;1.38;;;;;;;;;;5061190;28;20048;-52
2022/02/21 08:06:06;;;;;;;5.72;1.30;;;;;;;;;;5063185;28;20037;-51
2022/02/21 08:08:32;;;;;;;2.58;1.10;;;;;;;;;;5053292;28;20059;-49
2022/02/21 08:10:58;;;;;;;6.57;1.50;;;;;;;;;;5050586;28;20040;-51
2022/02/21 08:13:24;;;;;;;4.97;1.63;;;;;;;;;;5050052;28;20036;-53
2022/02/21 08:15:51;;;;;;;12.38;2.00;;;;;;;;;;5048975;28;20044;-49
2022/02/21 08:18:17;;;;;;;7.38;2.22;;;;;;;;;;5049219;28;20570;-49
2022/02/21 08:20:43;;;;;;;9.82;2.53;;;;;;;;;;5049576;28;20801;-50
2022/02/21 08:23:09;;;;;;;12.80;3.40;;;;;;;;;;5066164;28;20060;-50
2022/02/21 08:25:35;;;;;;;8.90;2.30;;;;;;;;;;5054153;28;20111;-50
2022/02/21 08:28:03;;;;;;;12.50;3.17;;;;;;;;;;5051659;28;20035;-49
2022/02/21 08:30:29;;;;;;;7.68;2.00;;;;;;;;;;5051903;28;20028;-49
2022/02/21 08:32:55;;;;;;;11.85;2.53;;;;;;;;;;5047020;28;20040;-51
2022/02/21 08:35:21;;;;;;;6.95;2.05;;;;;;;;;;5057705;28;20099;-49
2022/02/21 08:37:47;;;;;;;8.52;2.00;;;;;;;;;;5060044;28;20470;-49
2022/02/21 08:40:15;;;;;;;13.27;2.60;;;;;;;;;;5053853;28;20058;-51
2022/02/21 08:42:42;;;;;;;18.08;5.43;;;;;;;;;;5063458;28;20107;-49
2022/02/21 08:45:09;;;;;;;13.15;4.15;;;;;;;;;;5048346;28;20043;-49
2022/02/21 08:47:36;;;;;;;14.18;3.83;;;;;;;;;;5062552;28;20503;-49
2022/02/21 08:50:04;;;;;;;13.63;4.25;;;;;;;;;;5055019;28;20037;-48
2022/02/21 08:52:30;;;;;;;14.00;4.32;;;;;;;;;;5048071;28;20040;-49
2022/02/21 08:54:56;;;;;;;15.38;4.53;;;;;;;;;;5057631;28;20021;-50
2022/02/21 08:57:23;;;;;;;8.15;3.10;;;;;;;;;;5066091;28;20526;-52
2022/02/21 08:59:49;;;;;;;9.23;2.65;;;;;;;;;;5068681;28;20043;-50
2022/02/21 09:02:19;;;;;;;16.10;3.97;;;;;;;;;;5077695;28;20024;-52
2022/02/21 09:04:45;;;;;;;14.13;4.53;;;;;;;;;;5063324;28;20034;-50
2022/02/21 09:07:12;;;;;;;16.17;4.50;;;;;;;;;;5057551;28;20029;-52
2022/02/21 09:09:38;;;;;;;15.82;4.97;;;;;;;;;;5061694;28;20040;-49
2022/02/21 09:12:06;;;;;;;15.73;4.38;;;;;;;;;;5052332;28;20049;-48
2022/02/21 09:14:32;;;;;;;13.27;3.70;;;;;;;;;;5047679;28;20044;-49
2022/02/21 09:16:59;;;;;;;13.95;3.72;;;;;;;;;;5058083;28;20349;-50
2022/02/21 09:19:25;;;;;;;9.15;2.95;;;;;;;;;;5055121;28;20021;-52
2022/02/21 09:21:52;;;;;;;9.27;2.85;;;;;;;;;;5058338;28;20025;-49
2022/02/21 09:24:19;;;;;;;8.68;3.00;;;;;;;;;;5047991;28;20031;-49
2022/02/21 09:26:46;;;;;;;6.78;3.08;;;;;;;;;;5063788;28;20032;-49
2022/02/21 09:29:12;;;;;;;11.45;3.83;;;;;;;;;;5067086;28;20476;-50
2022/02/21 09:31:38;;;;;;;16.67;4.10;;;;;;;;;;5065251;28;20036;-49
2022/02/21 09:34:04;;;;;;;11.55;2.83;;;;;;;;;;5045433;28;20025;-51
2022/02/21 09:36:30;;;;;;;11.98;2.92;;;;;;;;;;5067681;28;20086;-49
2022/02/21 09:38:56;;;;;;;8.45;2.55;;;;;;;;;;5067181;28;20024;-49
2022/02/21 09:41:22;;;;;;;8.73;2.40;;;;;;;;;;5066463;28;20024;-52
2022/02/21 09:43:48;;;;;;;8.73;2.70;;;;;;;;;;5067237;28;20074;-49
2022/02/21 09:46:15;;;;;;;12.88;3.20;;;;;;;;;;5067136;28;20082;-50
2022/02/21 09:48:41;;;;;;;9.75;2.92;;;;;;;;;;5067324;28;20032;-49
2022/02/21 09:51:09;;;;;;;11.73;2.30;;;;;;;;;;5067261;28;20099;-49
2022/02/21 09:53:36;;;;;;;11.05;2.83;;;;;;;;;;5067284;28;20059;-52
2022/02/21 09:56:02;;;;;;;11.93;3.58;;;;;;;;;;5066954;28;20448;-49
2022/02/21 09:58:29;;;;;;;8.13;2.25;;;;;;;;;;5067030;28;20028;-52
2022/02/21 10:00:55;;;;;;;10.73;2.63;;;;;;;;;;5071083;28;20078;-52
2022/02/21 10:03:52;;;;;;;14.05;3.38;;;;;;;;;;5080509;28;20031;-52
2022/02/21 10:06:24;;;;;;;10.50;2.80;;;;;;;;;;5091193;28;20036;-53
2022/02/21 10:08:56;;;;;;;9.13;2.53;;;;;;;;;;5091741;28;20376;-49
2022/02/21 10:11:28;;;;;;;7.45;2.22;;;;;;;;;;5072133;28;20036;-51
2022/02/21 10:13:59;;;;;;;6.07;1.73;;;;;;;;;;5067137;28;20032;-51
2022/02/21 10:16:25;;;;;;;5.72;1.90;;;;;;;;;;5065802;28;20035;-52
2022/02/21 10:19:08;;;;;;;5.68;2.08;;;;;;;;;;5071146;28;20024;-51
2022/02/21 10:21:59;;;;;;;7.95;2.58;;;;;;;;;;5069698;28;20455;-52
2022/02/21 10:24:48;;;;;;;6.68;1.77;;;;;;;;;;5065441;28;20051;-51
2022/02/21 10:27:14;;;;;;;10.48;2.10;;;;;;;;;;5062450;28;20112;-48
2022/02/21 10:29:50;;;;;;;10.05;2.13;;;;;;;;;;5055877;28;20033;-51
2022/02/21 10:32:18;;;;;;;10.15;2.53;;;;;;;;;;5075124;28;20038;-52
2022/02/21 10:34:45;;;;;;;7.78;2.00;;;;;;;;;;5058241;28;20411;-50
2022/02/21 10:37:13;;;;;;;10.07;2.88;;;;;;;;;;5073997;28;20502;-50
2022/02/21 10:39:40;;;;;;;13.43;3.35;;;;;;;;;;5090944;28;20065;-51
2022/02/21 10:42:09;;;;;;;13.15;2.78;;;;;;;;;;5089896;28;20020;-49
2022/02/21 10:44:40;;;;;;;10.57;2.72;;;;;;;;;;5053629;28;20433;-49
2022/02/21 10:47:07;;;;;;;13.43;2.80;;;;;;;;;;5051452;28;20032;-52
2022/02/21 10:49:35;;;;;;;7.40;2.10;;;;;;;;;;5054846;28;20029;-50
2022/02/21 10:52:03;;;;;;;14.20;3.38;;;;;;;;;;5055102;28;20033;-48
2022/02/21 10:54:30;;;;;;;12.52;2.85;;;;;;;;;;5064838;28;20032;-51
2022/02/21 10:56:56;;;;;;;8.43;2.35;;;;;;;;;;5057714;28;20086;-51
2022/02/21 10:59:23;;;;;;;12.10;2.22;;;;;;;;;;5062688;28;20028;-49
2022/02/21 11:01:50;;;;;;;6.80;2.13;;;;;;;;;;5057323;28;20098;-48
2022/02/21 11:04:18;;;;;;;6.07;1.70;;;;;;;;;;5049803;28;20033;-52
2022/02/21 11:06:45;;;;;;;11.82;3.08;;;;;;;;;;5054538;28;20028;-49
2022/02/21 11:09:12;;;;;;;13.52;2.95;;;;;;;;;;5058749;28;20037;-52
2022/02/21 11:11:45;;;;;;;9.73;2.88;;;;;;;;;;5052878;28;20158;-52
2022/02/21 11:14:11;;;;;;;7.97;2.67;;;;;;;;;;5060567;28;20049;-51
2022/02/21 11:16:37;;;;;;;10.32;2.75;;;;;;;;;;5070320;28;20087;-51
2022/02/21 11:19:04;;;;;;;7.00;2.20;;;;;;;;;;5070833;28;20020;-51
2022/02/21 11:21:33;;;;;;;6.82;2.40;;;;;;;;;;5078849;28;20039;-50
2022/02/21 11:24:00;;;;;;;7.22;1.77;;;;;;;;;;5086603;28;20078;-50
2022/02/21 11:26:28;;;;;;;6.97;2.40;;;;;;;;;;5070506;28;20146;-51
2022/02/21 11:28:58;;;;;;;14.00;3.17;;;;;;;;;;5057900;28;20039;-49
2022/02/21 11:31:33;;;;;;;11.25;3.15;;;;;;;;;;5050590;28;20036;-50
2022/02/21 11:34:01;;;;;;;10.43;2.92;;;;;;;;;;5054422;28;20535;-49
2022/02/21 11:36:28;;;;;;;11.40;3.50;;;;;;;;;;5064493;28;20024;-49
2022/02/21 11:38:55;;;;;;;9.90;3.17;;;;;;;;;;5069691;28;20082;-47
2022/02/21 11:41:29;;;;;;;15.73;6.85;;;;;;;;;;5070444;28;20390;-50
2022/02/21 11:43:56;;;;;;;;;;;;;;;;;;5070412;28;20032;-51
2022/02/21 11:46:29;;;;;;;11.77;5.00;;;;;;;;;;5070788;28;20367;-48
2022/02/21 11:48:57;;;;;;;10.80;3.90;;;;;;;;;;5069761;28;20418;-51
2022/02/21 11:51:27;;;;;;;10.20;3.70;;;;;;;;;;5070733;28;20149;-50
2022/02/21 11:53:54;;;;;;;14.93;4.18;;;;;;;;;;5066235;28;20493;-53
2022/02/21 11:56:40;;;;;;;12.35;4.45;;;;;;;;;;5049396;28;20052;-50
2022/02/21 11:59:24;;;;;;;11.50;3.95;;;;;;;;;;5049843;28;20025;-51
2022/02/21 12:02:10;;;;;;;15.60;4.68;;;;;;;;;;5050568;28;20077;-49
2022/02/21 12:04:50;;;;;;;15.35;4.97;;;;;;;;;;5053368;28;20039;-48
2022/02/21 12:07:23;;;;;;;17.30;5.45;;;;;;;;;;5052132;28;20081;-49
2022/02/21 12:10:09;;;;;;;18.33;5.90;;;;;;;;;;5052277;28;20028;-49
2022/02/21 12:12:57;;;;;;;12.98;4.82;;;;;;;;;;5059336;28;20028;-53
2022/02/21 12:15:24;;;;;;;13.63;4.78;;;;;;;;;;5058131;28;20077;-50
2022/02/21 12:18:03;;;;;;;16.02;5.05;;;;;;;;;;5053801;28;20036;-52
2022/02/21 12:20:32;;;;;;;17.02;5.03;;;;;;;;;;5073251;28;20028;-47
2022/02/21 12:23:17;;;;;;;15.20;3.55;;;;;;;;;;5089183;28;20512;-49
2022/02/21 12:26:04;;;;;;;13.23;3.97;;;;;;;;;;5089059;28;20059;-50
2022/02/21 12:28:32;;;;;;;12.25;3.58;;;;;;;;;;5089065;28;20028;-51
2022/02/21 12:30:59;;;;;;;9.48;3.08;;;;;;;;;;5054051;28;20071;-52
2022/02/21 12:33:26;;;;;;;10.98;3.00;;;;;;;;;;5049606;28;20567;-52
2022/02/21 12:35:57;;;;;;;8.57;2.67;;;;;;;;;;5051056;28;20090;-53
2022/02/21 12:38:24;;;;;;;6.13;2.22;;;;;;;;;;5049202;28;20029;-50
2022/02/21 12:41:02;;;;;;;5.45;2.28;;;;;;;;;;5049142;28;20025;-51
2022/02/21 12:43:47;;;;;;;7.05;2.42;;;;;;;;;;5049289;28;20068;-49
2022/02/21 12:46:14;;;;;;;8.73;3.42;;;;;;;;;;5049035;28;20049;-51
2022/02/21 12:48:40;;;;;;;8.30;3.20;;;;;;;;;;5049612;28;20021;-51
2022/02/21 12:51:07;;;;;;;7.00;3.45;;;;;;;;;;5049019;28;20116;-50
2022/02/21 12:53:34;;;;;;;9.35;3.60;;;;;;;;;;5049028;28;20027;-49
2022/02/21 12:56:00;;;;;;;15.80;3.70;;;;;;;;;;5051417;28;20036;-50
2022/02/21 12:58:39;;;;;;;11.05;3.53;;;;;;;;;;5069095;28;20028;-48
2022/02/21 13:01:14;;;;;;;8.75;2.80;;;;;;;;;;5068848;28;20024;-48
2022/02/21 13:03:40;;;;;;;13.35;3.53;;;;;;;;;;5063390;28;20078;-49
2022/02/21 13:06:09;;;;;;;8.57;2.75;;;;;;;;;;5068844;28;20395;-51
2022/02/21 13:08:37;;;;;;;19.40;6.25;;;;;;;;;;5048680;28;20039;-51
2022/02/21 13:11:03;;;;;;;20.17;6.95;;;;;;;;;;5064591;28;20078;-49
2022/02/21 13:13:29;;;;;;;15.90;7.00;;;;;;;;;;5064716;28;20393;-50
2022/02/21 13:15:55;;;;;;;17.60;6.85;;;;;;;;;;5064996;28;20035;-51
2022/02/21 13:18:21;;;;;;;16.38;6.95;;;;;;;;;;5053066;28;20031;-52
2022/02/21 13:20:47;;;;;;;14.57;5.72;;;;;;;;;;5058661;28;20789;-52
2022/02/21 13:23:14;;;;;;;12.30;5.35;;;;;;;;;;5049397;28;20534;-52
2022/02/21 13:25:41;;;;;;;13.75;5.55;;;;;;;;;;5053712;28;20037;-49
2022/02/21 13:28:14;;;;;;;14.18;5.70;;;;;;;;;;5064582;28;20040;-50
2022/02/21 13:30:40;;;;;;;14.60;6.07;;;;;;;;;;5061560;28;20112;-50
2022/02/21 13:33:11;;;;;;;12.95;4.95;;;;;;;;;;5066591;28;20021;-50
2022/02/21 13:35:37;;;;;;;14.20;5.35;;;;;;;;;;5049209;28;20039;-51
2022/02/21 13:38:04;;;;;;;19.25;6.55;;;;;;;;;;5050788;28;20025;-51
2022/02/21 13:40:32;;;;;;;17.77;6.43;;;;;;;;;;5060423;28;20117;-51
2022/02/21 13:43:05;;;;;;;14.35;5.70;;;;;;;;;;5061052;28;20036;-53
2022/02/21 13:45:32;;;;;;;14.43;5.30;;;;;;;;;;5068499;28;20559;-48
2022/02/21 13:48:02;;;;;;;9.05;4.15;;;;;;;;;;5050859;28;20037;-49
2022/02/21 13:50:40;;;;;;;10.68;3.47;;;;;;;;;;5069042;28;20388;-48
2022/02/21 13:53:08;;;;;;;8.02;2.85;;;;;;;;;;5070137;28;20035;-48
2022/02/21 13:55:36;;;;;;;8.63;3.35;;;;;;;;;;5064036;28;20029;-47
2022/02/21 13:58:14;;;;;;;6.07;2.90;;;;;;;;;;5069330;28;20454;-52
2022/02/21 14:00:44;;;;;;;7.82;2.88;;;;;;;;;;5068145;28;20052;-49
2022/02/21 14:03:11;;;;;;;8.02;2.40;;;;;;;;;;5069329;28;20025;-49
2022/02/21 14:05:56;;;;;;;6.78;2.55;;;;;;;;;;5072095;28;20039;-48
2022/02/21 14:08:22;;;;;;;18.05;7.60;;;;;;;;;;5057158;28;20062;-49
2022/02/21 14:10:57;;;;;;;17.17;6.65;;;;;;;;;;5058896;28;20119;-48
2022/02/21 14:13:24;;;;;;;9.40;4.40;;;;;;;;;;5065699;28;20507;-48
2022/02/21 14:15:50;;;;;;;7.25;3.63;;;;;;;;;;5059722;28;20064;-52
2022/02/21 14:18:16;;;;;;;9.45;4.28;;;;;;;;;;5051257;28;20040;-50
2022/02/21 14:20:44;;;;;;;9.93;4.05;;;;;;;;;;5051894;28;20544;-52
2022/02/21 14:23:10;;;;;;;9.07;3.45;;;;;;;;;;5054822;28;20056;-51
2022/02/21 14:25:36;;;;;;;5.95;2.90;;;;;;;;;;5062791;28;20028;-49
2022/02/21 14:28:03;;;;;;;7.25;2.78;;;;;;;;;;5060416;28;20035;-52
2022/02/21 14:30:29;;;;;;;8.40;3.97;;;;;;;;;;5051358;28;20041;-51
2022/02/21 14:32:55;;;;;;;9.00;3.22;;;;;;;;;;5056453;28;20039;-52
2022/02/21 14:35:21;;;;;;;9.63;3.40;;;;;;;;;;5064880;28;20029;-51
2022/02/21 14:37:47;;;;;;;13.15;4.13;;;;;;;;;;5054205;28;20029;-52
2022/02/21 14:40:13;;;;;;;10.93;3.80;;;;;;;;;;5051098;28;20095;-47
2022/02/21 14:42:40;;;;;;;10.75;4.40;;;;;;;;;;5050587;28;20025;-50